createdAt,value
2022-11-16T00:00:06.390Z,76.34
2022-11-16T00:00:27.554Z,76.34
2022-11-16T00:00:48.597Z,76.32
2022-11-16T00:01:09.645Z,76.30
2022-11-16T00:01:30.728Z,76.23
2022-11-16T00:01:51.891Z,76.29
2022-11-16T00:02:13.036Z,76.33
2022-11-16T00:02:34.131Z,76.36
2022-11-16T00:02:55.235Z,76.42
2022-11-16T00:03:16.287Z,76.43
2022-11-16T00:03:37.513Z,76.45
2022-11-16T00:03:58.586Z,76.43
2022-11-16T00:04:19.603Z,76.41
2022-11-16T00:04:40.668Z,76.41
2022-11-16T00:05:01.712Z,76.36
2022-11-16T00:05:27.930Z,76.40
2022-11-16T00:05:49.760Z,76.46
2022-11-16T00:06:10.823Z,76.50
2022-11-16T00:06:31.866Z,76.48
2022-11-16T00:06:52.985Z,76.45
2022-11-16T00:07:14.068Z,76.43
2022-11-16T00:07:35.172Z,76.40
2022-11-16T00:07:56.203Z,76.43
2022-11-16T00:08:17.270Z,76.40
2022-11-16T00:08:38.458Z,76.45
2022-11-16T00:08:59.497Z,76.43
2022-11-16T00:09:20.551Z,76.44
2022-11-16T00:09:41.661Z,76.42
2022-11-16T00:10:02.679Z,76.44
2022-11-16T00:10:23.755Z,76.38
2022-11-16T00:10:44.809Z,76.37
2022-11-16T00:11:05.851Z,76.39
2022-11-16T00:11:26.909Z,76.42
2022-11-16T00:11:47.955Z,76.40
2022-11-16T00:12:09.007Z,76.48
2022-11-16T00:12:30.064Z,76.51
2022-11-16T00:12:51.111Z,76.57
2022-11-16T00:13:12.159Z,76.61
2022-11-16T00:13:33.206Z,76.61
2022-11-16T00:13:54.508Z,76.56
2022-11-16T00:14:15.551Z,76.60
2022-11-16T00:14:36.607Z,76.58
2022-11-16T00:14:57.702Z,76.52
2022-11-16T00:15:18.761Z,76.57
2022-11-16T00:15:39.784Z,76.47
2022-11-16T00:16:00.845Z,76.52
2022-11-16T00:16:21.907Z,76.47
2022-11-16T00:16:42.970Z,76.46
2022-11-16T00:17:04.023Z,76.51
2022-11-16T00:17:25.105Z,76.48
2022-11-16T00:17:46.130Z,76.57
2022-11-16T00:18:07.184Z,76.57
2022-11-16T00:18:28.235Z,76.64
2022-11-16T00:18:49.290Z,76.61
2022-11-16T00:19:10.358Z,76.64
2022-11-16T00:19:31.427Z,76.62
2022-11-16T00:19:52.521Z,76.62
2022-11-16T00:20:13.592Z,76.63
2022-11-16T00:20:34.666Z,76.68
2022-11-16T00:20:55.721Z,76.66
2022-11-16T00:21:16.755Z,76.60
2022-11-16T00:21:37.799Z,76.65
2022-11-16T00:21:58.894Z,76.65
2022-11-16T00:22:19.984Z,76.64
2022-11-16T00:22:41.033Z,76.64
2022-11-16T00:23:02.095Z,76.66
2022-11-16T00:23:23.151Z,76.73
2022-11-16T00:23:44.199Z,76.72
2022-11-16T00:24:05.432Z,76.74
2022-11-16T00:24:26.581Z,76.78
2022-11-16T00:24:47.657Z,76.82
2022-11-16T00:25:08.717Z,76.80
2022-11-16T00:25:29.770Z,76.87
2022-11-16T00:25:50.834Z,76.80
2022-11-16T00:26:11.892Z,76.82
2022-11-16T00:26:32.952Z,76.85
2022-11-16T00:26:54.024Z,76.83
2022-11-16T00:27:15.070Z,76.81
2022-11-16T00:27:36.133Z,76.81
2022-11-16T00:27:57.200Z,76.70
2022-11-16T00:28:18.232Z,76.77
2022-11-16T00:28:39.309Z,76.71
2022-11-16T00:29:00.339Z,76.73
2022-11-16T00:29:21.497Z,76.76
2022-11-16T00:29:42.578Z,76.83
2022-11-16T00:30:03.599Z,76.79
2022-11-16T00:30:24.671Z,76.87
2022-11-16T00:30:45.703Z,76.88
2022-11-16T00:31:06.754Z,76.90
2022-11-16T00:31:27.975Z,76.92
2022-11-16T00:31:49.036Z,76.92
2022-11-16T00:32:10.080Z,76.94
2022-11-16T00:32:31.168Z,76.93
2022-11-16T00:32:52.219Z,76.89
2022-11-16T00:33:13.285Z,76.94
2022-11-16T00:33:34.316Z,76.95
2022-11-16T00:33:55.367Z,76.95
2022-11-16T00:34:16.515Z,76.99
2022-11-16T00:34:37.555Z,76.98
2022-11-16T00:34:58.607Z,77.02
2022-11-16T00:35:19.679Z,76.99
2022-11-16T00:35:40.707Z,77.02
2022-11-16T00:36:01.768Z,77.07
2022-11-16T00:36:22.877Z,77.01
2022-11-16T00:36:43.977Z,77.09
2022-11-16T00:37:05.012Z,77.10
2022-11-16T00:37:26.046Z,77.04
2022-11-16T00:37:47.098Z,77.10
2022-11-16T00:38:08.152Z,77.11
2022-11-16T00:38:29.219Z,77.13
2022-11-16T00:38:50.274Z,77.10
2022-11-16T00:39:11.344Z,77.09
2022-11-16T00:39:32.371Z,77.05
2022-11-16T00:39:53.431Z,77.03
2022-11-16T00:40:14.487Z,77.08
2022-11-16T00:40:35.540Z,76.94
2022-11-16T00:40:56.633Z,76.95
2022-11-16T00:41:17.673Z,76.86
2022-11-16T00:41:38.721Z,76.93
2022-11-16T00:41:59.792Z,76.97
2022-11-16T00:42:20.861Z,77.04
2022-11-16T00:42:41.938Z,77.04
2022-11-16T00:43:02.976Z,77.04
2022-11-16T00:43:24.024Z,77.07
2022-11-16T00:43:45.091Z,77.00
2022-11-16T00:44:06.131Z,77.01
2022-11-16T00:44:27.177Z,77.02
2022-11-16T00:44:48.227Z,77.08
2022-11-16T00:45:09.282Z,77.05
2022-11-16T00:45:30.350Z,77.09
2022-11-16T00:45:51.457Z,77.05
2022-11-16T00:46:12.462Z,77.08
2022-11-16T00:46:33.514Z,77.00
2022-11-16T00:46:54.563Z,77.05
2022-11-16T00:47:15.638Z,77.02
2022-11-16T00:47:36.687Z,77.03
2022-11-16T00:48:00.414Z,77.05
2022-11-16T00:48:21.837Z,77.10
2022-11-16T00:48:42.886Z,77.08
2022-11-16T00:49:03.944Z,77.06
2022-11-16T00:49:25.001Z,77.06
2022-11-16T00:49:46.045Z,76.99
2022-11-16T00:50:07.116Z,77.02
2022-11-16T00:50:28.145Z,76.99
2022-11-16T00:50:49.201Z,76.98
2022-11-16T00:51:10.260Z,76.99
2022-11-16T00:51:31.318Z,77.00
2022-11-16T00:51:52.363Z,77.01
2022-11-16T00:52:13.451Z,77.02
2022-11-16T00:52:34.603Z,77.02
2022-11-16T00:52:55.648Z,77.03
2022-11-16T00:53:16.710Z,77.01
2022-11-16T00:53:37.775Z,77.01
2022-11-16T00:53:58.830Z,77.01
2022-11-16T00:54:19.868Z,77.04
2022-11-16T00:54:40.932Z,77.07
2022-11-16T00:55:01.979Z,77.10
2022-11-16T00:55:23.061Z,77.07
2022-11-16T00:55:44.108Z,77.12
2022-11-16T00:56:05.149Z,77.09
2022-11-16T00:56:26.211Z,77.15
2022-11-16T00:56:47.261Z,77.13
2022-11-16T00:57:08.308Z,77.14
2022-11-16T00:57:29.379Z,77.09
2022-11-16T00:57:50.565Z,77.15
2022-11-16T00:58:11.628Z,77.16
2022-11-16T00:58:33.121Z,77.18
2022-11-16T00:58:54.294Z,77.16
2022-11-16T00:59:15.341Z,77.18
2022-11-16T00:59:36.392Z,77.26
2022-11-16T00:59:57.446Z,77.22
2022-11-16T01:00:18.519Z,77.25
2022-11-16T01:00:39.590Z,77.31
2022-11-16T01:01:00.666Z,77.29
2022-11-16T01:01:21.888Z,77.35
2022-11-16T01:01:43.028Z,77.35
2022-11-16T01:02:04.101Z,77.40
2022-11-16T01:02:25.132Z,77.40
2022-11-16T01:02:46.236Z,77.41
2022-11-16T01:03:07.263Z,77.37
2022-11-16T01:03:28.333Z,77.37
2022-11-16T01:03:49.367Z,77.33
2022-11-16T01:04:10.415Z,77.28
2022-11-16T01:04:31.483Z,77.27
2022-11-16T01:04:52.647Z,77.23
2022-11-16T01:05:13.705Z,77.18
2022-11-16T01:05:34.762Z,77.17
2022-11-16T01:05:55.812Z,77.17
2022-11-16T01:06:16.867Z,77.16
2022-11-16T01:06:37.920Z,77.13
2022-11-16T01:06:59.028Z,77.19
2022-11-16T01:07:20.131Z,77.16
2022-11-16T01:07:41.185Z,77.17
2022-11-16T01:08:02.221Z,77.13
2022-11-16T01:08:23.269Z,77.17
2022-11-16T01:08:44.320Z,77.14
2022-11-16T01:09:05.390Z,77.14
2022-11-16T01:09:26.430Z,77.14
2022-11-16T01:09:47.517Z,77.12
2022-11-16T01:10:08.713Z,77.13
2022-11-16T01:10:29.766Z,77.13
2022-11-16T01:10:50.825Z,77.16
2022-11-16T01:11:11.882Z,77.10
2022-11-16T01:11:32.937Z,77.11
2022-11-16T01:11:53.970Z,77.11
2022-11-16T01:12:15.019Z,77.15
2022-11-16T01:12:36.068Z,77.18
2022-11-16T01:12:57.167Z,77.19
2022-11-16T01:13:18.212Z,77.17
2022-11-16T01:13:39.292Z,77.22
2022-11-16T01:14:00.402Z,77.24
2022-11-16T01:14:21.417Z,77.22
2022-11-16T01:14:42.477Z,77.23
2022-11-16T01:15:03.522Z,77.18
2022-11-16T01:15:24.572Z,77.15
2022-11-16T01:15:45.663Z,77.17
2022-11-16T01:16:06.703Z,77.18
2022-11-16T01:16:27.757Z,77.18
2022-11-16T01:16:48.815Z,77.24
2022-11-16T01:17:09.880Z,77.22
2022-11-16T01:17:30.915Z,77.25
2022-11-16T01:17:51.959Z,77.21
2022-11-16T01:18:13.013Z,77.21
2022-11-16T01:18:34.311Z,77.18
2022-11-16T01:18:55.451Z,77.21
2022-11-16T01:19:16.555Z,77.20
2022-11-16T01:19:37.606Z,77.19
2022-11-16T01:19:58.678Z,77.19
2022-11-16T01:20:19.710Z,77.10
2022-11-16T01:20:40.759Z,77.11
2022-11-16T01:21:01.936Z,77.10
2022-11-16T01:21:22.990Z,77.05
2022-11-16T01:21:44.031Z,77.06
2022-11-16T01:22:05.084Z,77.06
2022-11-16T01:22:26.140Z,77.07
2022-11-16T01:22:47.185Z,77.05
2022-11-16T01:23:08.232Z,77.04
2022-11-16T01:23:29.307Z,77.05
2022-11-16T01:23:50.384Z,77.01
2022-11-16T01:24:11.448Z,77.02
2022-11-16T01:24:32.507Z,77.02
2022-11-16T01:24:53.563Z,77.01
2022-11-16T01:25:14.608Z,77.02
2022-11-16T01:25:35.660Z,77.10
2022-11-16T01:25:56.737Z,77.12
2022-11-16T01:26:17.931Z,77.12
2022-11-16T01:26:38.979Z,77.13
2022-11-16T01:27:00.033Z,77.07
2022-11-16T01:27:21.080Z,77.05
2022-11-16T01:27:42.125Z,77.11
2022-11-16T01:28:03.198Z,77.09
2022-11-16T01:28:24.256Z,77.09
2022-11-16T01:28:45.303Z,77.11
2022-11-16T01:29:06.363Z,77.17
2022-11-16T01:29:27.393Z,77.17
2022-11-16T01:29:48.445Z,77.17
2022-11-16T01:30:09.513Z,77.18
2022-11-16T01:30:30.598Z,77.13
2022-11-16T01:30:51.660Z,77.10
2022-11-16T01:31:12.693Z,77.12
2022-11-16T01:31:33.849Z,77.11
2022-11-16T01:31:54.899Z,77.12
2022-11-16T01:32:15.949Z,77.10
2022-11-16T01:32:37.003Z,77.07
2022-11-16T01:32:58.052Z,77.07
2022-11-16T01:33:19.113Z,77.06
2022-11-16T01:33:40.155Z,77.05
2022-11-16T01:34:01.256Z,77.05
2022-11-16T01:34:22.281Z,77.04
2022-11-16T01:34:43.328Z,76.97
2022-11-16T01:35:04.396Z,77.02
2022-11-16T01:35:25.458Z,77.02
2022-11-16T01:35:46.527Z,77.06
2022-11-16T01:36:07.559Z,77.04
2022-11-16T01:36:28.636Z,77.12
2022-11-16T01:36:49.679Z,77.07
2022-11-16T01:37:10.730Z,77.09
2022-11-16T01:37:31.797Z,77.05
2022-11-16T01:37:52.866Z,77.05
2022-11-16T01:38:13.891Z,77.00
2022-11-16T01:38:35.365Z,76.97
2022-11-16T01:38:56.591Z,76.95
2022-11-16T01:39:17.652Z,76.92
2022-11-16T01:39:38.701Z,76.98
2022-11-16T01:39:59.771Z,76.90
2022-11-16T01:40:20.800Z,76.92
2022-11-16T01:40:41.856Z,76.95
2022-11-16T01:41:02.909Z,77.02
2022-11-16T01:41:24.014Z,76.98
2022-11-16T01:41:45.162Z,77.06
2022-11-16T01:42:06.210Z,77.08
2022-11-16T01:42:27.279Z,77.08
2022-11-16T01:42:48.334Z,77.09
2022-11-16T01:43:09.385Z,77.08
2022-11-16T01:43:30.435Z,77.06
2022-11-16T01:43:51.490Z,77.07
2022-11-16T01:44:12.536Z,77.03
2022-11-16T01:44:33.600Z,77.05
2022-11-16T01:44:54.665Z,77.04
2022-11-16T01:45:15.813Z,77.02
2022-11-16T01:45:36.891Z,77.00
2022-11-16T01:45:57.984Z,76.98
2022-11-16T01:46:19.018Z,76.94
2022-11-16T01:46:40.073Z,76.94
2022-11-16T01:47:01.141Z,76.93
2022-11-16T01:47:22.177Z,76.91
2022-11-16T01:47:43.233Z,76.87
2022-11-16T01:48:04.315Z,76.88
2022-11-16T01:48:25.403Z,76.91
2022-11-16T01:48:46.490Z,76.92
2022-11-16T01:49:07.636Z,76.92
2022-11-16T01:49:28.650Z,76.97
2022-11-16T01:49:49.696Z,76.98
2022-11-16T01:50:10.770Z,77.03
2022-11-16T01:50:31.819Z,77.01
2022-11-16T01:50:52.871Z,76.98
2022-11-16T01:51:13.934Z,77.02
2022-11-16T01:51:34.988Z,77.03
2022-11-16T01:51:56.041Z,77.04
2022-11-16T01:52:17.086Z,77.01
2022-11-16T01:52:38.150Z,77.02
2022-11-16T01:52:59.200Z,77.08
2022-11-16T01:53:20.243Z,77.06
2022-11-16T01:53:41.305Z,77.04
2022-11-16T01:54:02.357Z,77.10
2022-11-16T01:54:23.399Z,77.08
2022-11-16T01:54:44.469Z,77.12
2022-11-16T01:55:05.532Z,77.14
2022-11-16T01:55:26.600Z,77.15
2022-11-16T01:55:47.662Z,77.17
2022-11-16T01:56:08.743Z,77.19
2022-11-16T01:56:29.773Z,77.23
2022-11-16T01:56:50.840Z,77.30
2022-11-16T01:57:11.882Z,77.27
2022-11-16T01:57:32.920Z,77.22
2022-11-16T01:57:53.980Z,77.23
2022-11-16T01:58:15.022Z,77.24
2022-11-16T01:58:36.487Z,77.26
2022-11-16T01:58:57.607Z,77.25
2022-11-16T01:59:18.670Z,77.26
2022-11-16T01:59:39.715Z,77.29
2022-11-16T02:00:00.765Z,77.36
2022-11-16T02:00:21.811Z,77.31
2022-11-16T02:00:42.926Z,77.35
2022-11-16T02:01:04.162Z,77.34
2022-11-16T02:01:25.317Z,77.32
2022-11-16T02:01:46.362Z,77.30
2022-11-16T02:02:07.397Z,77.29
2022-11-16T02:02:28.450Z,77.28
2022-11-16T02:02:49.507Z,77.22
2022-11-16T02:03:10.581Z,77.21
2022-11-16T02:03:31.631Z,77.17
2022-11-16T02:03:52.670Z,77.19
2022-11-16T02:04:13.716Z,77.14
2022-11-16T02:04:34.767Z,77.20
2022-11-16T02:04:55.825Z,77.18
2022-11-16T02:05:16.876Z,77.22
2022-11-16T02:05:37.926Z,77.19
2022-11-16T02:05:58.977Z,77.25
2022-11-16T02:06:20.070Z,77.29
2022-11-16T02:06:41.117Z,77.26
2022-11-16T02:07:02.208Z,77.23
2022-11-16T02:07:23.331Z,77.22
2022-11-16T02:07:44.424Z,77.23
2022-11-16T02:08:05.494Z,77.26
2022-11-16T02:08:26.553Z,77.17
2022-11-16T02:08:47.606Z,77.15
2022-11-16T02:09:08.665Z,77.20
2022-11-16T02:09:29.716Z,77.19
2022-11-16T02:09:50.787Z,77.17
2022-11-16T02:10:11.829Z,77.24
2022-11-16T02:10:32.965Z,77.17
2022-11-16T02:10:54.003Z,77.17
2022-11-16T02:11:15.087Z,77.15
2022-11-16T02:11:36.111Z,77.14
2022-11-16T02:11:57.159Z,77.21
2022-11-16T02:12:18.278Z,77.16
2022-11-16T02:12:39.320Z,77.22
2022-11-16T02:13:00.375Z,77.20
2022-11-16T02:13:21.429Z,77.24
2022-11-16T02:13:42.475Z,77.25
2022-11-16T02:14:03.537Z,77.15
2022-11-16T02:14:24.586Z,77.16
2022-11-16T02:14:45.669Z,77.17
2022-11-16T02:15:06.742Z,77.25
2022-11-16T02:15:27.794Z,77.27
2022-11-16T02:15:48.871Z,77.28
2022-11-16T02:16:09.953Z,77.25
2022-11-16T02:16:30.992Z,77.20
2022-11-16T02:16:52.064Z,77.18
2022-11-16T02:17:13.127Z,77.21
2022-11-16T02:17:34.194Z,77.23
2022-11-16T02:17:55.227Z,77.21
2022-11-16T02:18:16.285Z,77.25
2022-11-16T02:18:37.353Z,77.28
2022-11-16T02:18:58.407Z,77.28
2022-11-16T02:19:19.457Z,77.29
2022-11-16T02:19:40.547Z,77.34
2022-11-16T02:20:01.623Z,77.34
2022-11-16T02:20:22.645Z,77.37
2022-11-16T02:20:43.704Z,77.38
2022-11-16T02:21:04.870Z,77.40
2022-11-16T02:21:25.926Z,77.41
2022-11-16T02:21:46.982Z,77.42
2022-11-16T02:22:08.081Z,77.50
2022-11-16T02:22:29.113Z,77.47
2022-11-16T02:22:50.160Z,77.49
2022-11-16T02:23:11.204Z,77.45
2022-11-16T02:23:32.247Z,77.53
2022-11-16T02:23:53.321Z,77.54
2022-11-16T02:24:14.373Z,77.52
2022-11-16T02:24:35.406Z,77.56
2022-11-16T02:24:56.467Z,77.54
2022-11-16T02:25:17.538Z,77.57
2022-11-16T02:25:38.588Z,77.59
2022-11-16T02:25:59.633Z,77.59
2022-11-16T02:26:20.804Z,77.65
2022-11-16T02:26:41.852Z,77.65
2022-11-16T02:27:02.926Z,77.67
2022-11-16T02:27:23.960Z,77.62
2022-11-16T02:27:45.019Z,77.60
2022-11-16T02:28:06.073Z,77.57
2022-11-16T02:28:27.144Z,77.56
2022-11-16T02:28:48.176Z,77.54
2022-11-16T02:29:09.307Z,77.61
2022-11-16T02:29:30.352Z,77.61
2022-11-16T02:29:51.418Z,77.61
2022-11-16T02:30:12.465Z,77.60
2022-11-16T02:30:33.512Z,77.62
2022-11-16T02:30:54.567Z,77.61
2022-11-16T02:31:15.683Z,77.61
2022-11-16T02:31:36.736Z,77.65
2022-11-16T02:31:57.796Z,77.69
2022-11-16T02:32:18.847Z,77.66
2022-11-16T02:32:39.902Z,77.66
2022-11-16T02:33:00.946Z,77.71
2022-11-16T02:33:22.003Z,77.65
2022-11-16T02:33:43.074Z,77.69
2022-11-16T02:34:04.106Z,77.59
2022-11-16T02:34:25.193Z,77.56
2022-11-16T02:34:46.234Z,77.54
2022-11-16T02:35:07.287Z,77.55
2022-11-16T02:35:28.341Z,77.53
2022-11-16T02:35:49.397Z,77.54
2022-11-16T02:36:10.509Z,77.58
2022-11-16T02:36:31.542Z,77.50
2022-11-16T02:36:52.625Z,77.51
2022-11-16T02:37:13.681Z,77.53
2022-11-16T02:37:34.732Z,77.57
2022-11-16T02:37:55.795Z,77.56
2022-11-16T02:38:16.842Z,77.54
2022-11-16T02:38:37.885Z,77.51
2022-11-16T02:38:58.985Z,77.43
2022-11-16T02:39:20.000Z,77.42
2022-11-16T02:39:41.064Z,77.38
2022-11-16T02:40:02.124Z,77.42
2022-11-16T02:40:23.158Z,77.41
2022-11-16T02:40:44.241Z,77.42
2022-11-16T02:41:05.314Z,77.42
2022-11-16T02:41:26.405Z,77.44
2022-11-16T02:41:47.432Z,77.45
2022-11-16T02:42:08.618Z,77.43
2022-11-16T02:42:29.668Z,77.42
2022-11-16T02:42:50.718Z,77.40
2022-11-16T02:43:11.770Z,77.40
2022-11-16T02:43:32.828Z,77.37
2022-11-16T02:43:53.877Z,77.41
2022-11-16T02:44:14.924Z,77.39
2022-11-16T02:44:35.976Z,77.34
2022-11-16T02:44:57.020Z,77.37
2022-11-16T02:45:18.085Z,77.45
2022-11-16T02:45:39.133Z,77.43
2022-11-16T02:46:00.186Z,77.39
2022-11-16T02:46:21.272Z,77.43
2022-11-16T02:46:42.304Z,77.38
2022-11-16T02:47:03.354Z,77.38
2022-11-16T02:47:24.423Z,77.37
2022-11-16T02:47:45.468Z,77.39
2022-11-16T02:48:06.520Z,77.39
2022-11-16T02:48:27.566Z,77.42
2022-11-16T02:48:48.627Z,77.43
2022-11-16T02:49:09.678Z,77.44
2022-11-16T02:49:30.736Z,77.43
2022-11-16T02:49:51.785Z,77.45
2022-11-16T02:50:12.841Z,77.52
2022-11-16T02:50:33.899Z,77.51
2022-11-16T02:50:54.970Z,77.49
2022-11-16T02:51:16.021Z,77.53
2022-11-16T02:51:37.083Z,77.48
2022-11-16T02:51:58.117Z,77.49
2022-11-16T02:52:19.166Z,77.52
2022-11-16T02:52:40.233Z,77.49
2022-11-16T02:53:01.285Z,77.47
2022-11-16T02:53:22.327Z,77.44
2022-11-16T02:53:43.405Z,77.39
2022-11-16T02:54:04.448Z,77.38
2022-11-16T02:54:25.496Z,77.39
2022-11-16T02:54:46.544Z,77.37
2022-11-16T02:55:07.593Z,77.41
2022-11-16T02:55:28.644Z,77.40
2022-11-16T02:55:49.717Z,77.43
2022-11-16T02:56:10.771Z,77.45
2022-11-16T02:56:31.874Z,77.46
2022-11-16T02:56:52.874Z,77.45
2022-11-16T02:57:13.932Z,77.50
2022-11-16T02:57:34.999Z,77.50
2022-11-16T02:57:56.049Z,77.45
2022-11-16T02:58:17.111Z,77.48
2022-11-16T02:58:38.167Z,77.50
2022-11-16T02:58:59.278Z,77.59
2022-11-16T02:59:20.315Z,77.55
2022-11-16T02:59:41.365Z,77.62
2022-11-16T03:00:02.423Z,77.65
2022-11-16T03:00:23.481Z,77.63
2022-11-16T03:00:44.571Z,77.67
2022-11-16T03:01:05.755Z,77.60
2022-11-16T03:01:26.881Z,77.66
2022-11-16T03:01:47.906Z,77.73
2022-11-16T03:02:08.967Z,77.65
2022-11-16T03:02:30.010Z,77.74
2022-11-16T03:02:51.184Z,77.74
2022-11-16T03:03:12.287Z,77.78
2022-11-16T03:03:33.357Z,77.74
2022-11-16T03:03:54.432Z,77.80
2022-11-16T03:04:15.464Z,77.74
2022-11-16T03:04:36.519Z,77.75
2022-11-16T03:04:57.563Z,77.75
2022-11-16T03:05:18.615Z,77.79
2022-11-16T03:05:39.663Z,77.78
2022-11-16T03:06:00.764Z,77.78
2022-11-16T03:06:21.808Z,77.76
2022-11-16T03:06:42.843Z,77.76
2022-11-16T03:07:03.967Z,77.79
2022-11-16T03:07:25.071Z,77.80
2022-11-16T03:07:46.161Z,77.77
2022-11-16T03:08:07.318Z,77.80
2022-11-16T03:08:28.364Z,77.82
2022-11-16T03:08:49.421Z,77.79
2022-11-16T03:09:10.480Z,77.78
2022-11-16T03:09:31.538Z,77.81
2022-11-16T03:09:52.579Z,77.83
2022-11-16T03:10:13.631Z,77.81
2022-11-16T03:10:34.700Z,77.79
2022-11-16T03:10:55.748Z,77.79
2022-11-16T03:11:16.842Z,77.80
2022-11-16T03:11:37.863Z,77.83
2022-11-16T03:11:59.102Z,77.84
2022-11-16T03:12:20.148Z,77.82
2022-11-16T03:12:41.199Z,77.80
2022-11-16T03:13:02.252Z,77.78
2022-11-16T03:13:23.323Z,77.76
2022-11-16T03:13:44.390Z,77.79
2022-11-16T03:14:05.418Z,77.77
2022-11-16T03:14:26.498Z,77.81
2022-11-16T03:14:47.561Z,77.83
2022-11-16T03:15:08.624Z,77.84
2022-11-16T03:15:29.661Z,77.87
2022-11-16T03:15:50.711Z,77.87
2022-11-16T03:16:11.791Z,77.87
2022-11-16T03:16:32.831Z,77.85
2022-11-16T03:16:53.858Z,77.85
2022-11-16T03:17:14.917Z,77.89
2022-11-16T03:17:35.996Z,77.88
2022-11-16T03:17:57.063Z,77.92
2022-11-16T03:18:18.099Z,78.00
2022-11-16T03:18:39.196Z,78.02
2022-11-16T03:19:00.247Z,78.01
2022-11-16T03:19:21.301Z,78.05
2022-11-16T03:19:42.356Z,78.09
2022-11-16T03:20:03.415Z,78.04
2022-11-16T03:20:24.448Z,78.11
2022-11-16T03:20:45.516Z,78.15
2022-11-16T03:21:06.555Z,78.16
2022-11-16T03:21:27.609Z,78.18
2022-11-16T03:21:48.659Z,78.17
2022-11-16T03:22:09.737Z,78.15
2022-11-16T03:22:30.771Z,78.13
2022-11-16T03:22:51.818Z,78.10
2022-11-16T03:23:12.882Z,78.16
2022-11-16T03:23:33.923Z,78.18
2022-11-16T03:23:55.093Z,78.18
2022-11-16T03:24:16.182Z,78.20
2022-11-16T03:24:37.215Z,78.20
2022-11-16T03:24:58.267Z,78.21
2022-11-16T03:25:19.326Z,78.25
2022-11-16T03:25:40.375Z,78.27
2022-11-16T03:26:01.429Z,78.23
2022-11-16T03:26:22.491Z,78.25
2022-11-16T03:26:43.580Z,78.30
2022-11-16T03:27:04.599Z,78.28
2022-11-16T03:27:25.651Z,78.30
2022-11-16T03:27:46.718Z,78.30
2022-11-16T03:28:07.750Z,78.36
2022-11-16T03:28:28.816Z,78.36
2022-11-16T03:28:49.870Z,78.38
2022-11-16T03:29:11.064Z,78.39
2022-11-16T03:29:32.124Z,78.38
2022-11-16T03:29:53.176Z,78.39
2022-11-16T03:30:14.231Z,78.36
2022-11-16T03:30:35.301Z,78.36
2022-11-16T03:30:56.359Z,78.37
2022-11-16T03:31:17.405Z,78.37
2022-11-16T03:31:38.480Z,78.41
2022-11-16T03:31:59.522Z,78.41
2022-11-16T03:32:20.578Z,78.33
2022-11-16T03:32:41.649Z,78.36
2022-11-16T03:33:02.697Z,78.35
2022-11-16T03:33:23.756Z,78.35
2022-11-16T03:33:44.812Z,78.36
2022-11-16T03:34:05.863Z,78.34
2022-11-16T03:34:26.991Z,78.32
2022-11-16T03:34:48.026Z,78.32
2022-11-16T03:35:09.074Z,78.35
2022-11-16T03:35:30.124Z,78.30
2022-11-16T03:35:51.184Z,78.31
2022-11-16T03:36:12.237Z,78.34
2022-11-16T03:36:33.290Z,78.34
2022-11-16T03:36:54.338Z,78.35
2022-11-16T03:37:15.414Z,78.40
2022-11-16T03:37:36.464Z,78.36
2022-11-16T03:37:57.525Z,78.38
2022-11-16T03:38:18.647Z,78.35
2022-11-16T03:38:39.717Z,78.36
2022-11-16T03:39:00.765Z,78.35
2022-11-16T03:39:21.816Z,78.29
2022-11-16T03:39:42.892Z,78.27
2022-11-16T03:40:03.942Z,78.29
2022-11-16T03:40:24.981Z,78.28
2022-11-16T03:40:46.031Z,78.26
2022-11-16T03:41:07.089Z,78.26
2022-11-16T03:41:28.139Z,78.24
2022-11-16T03:41:49.225Z,78.24
2022-11-16T03:42:10.261Z,78.26
2022-11-16T03:42:31.315Z,78.26
2022-11-16T03:42:52.371Z,78.27
2022-11-16T03:43:13.417Z,78.25
2022-11-16T03:43:34.498Z,78.26
2022-11-16T03:43:55.555Z,78.26
2022-11-16T03:44:16.604Z,78.27
2022-11-16T03:44:37.697Z,78.24
2022-11-16T03:44:58.707Z,78.24
2022-11-16T03:45:19.751Z,78.23
2022-11-16T03:45:40.802Z,78.20
2022-11-16T03:46:01.853Z,78.25
2022-11-16T03:46:22.903Z,78.26
2022-11-16T03:46:43.988Z,78.29
2022-11-16T03:47:05.020Z,78.25
2022-11-16T03:47:26.082Z,78.29
2022-11-16T03:47:47.118Z,78.32
2022-11-16T03:48:08.173Z,78.37
2022-11-16T03:48:29.329Z,78.34
2022-11-16T03:48:50.381Z,78.36
2022-11-16T03:49:11.439Z,78.36
2022-11-16T03:49:32.509Z,78.39
2022-11-16T03:49:53.560Z,78.42
2022-11-16T03:50:14.628Z,78.38
2022-11-16T03:50:35.670Z,78.44
2022-11-16T03:50:56.723Z,78.43
2022-11-16T03:51:17.773Z,78.44
2022-11-16T03:51:38.822Z,78.44
2022-11-16T03:51:59.920Z,78.46
2022-11-16T03:52:20.957Z,78.45
2022-11-16T03:52:42.005Z,78.46
2022-11-16T03:53:03.053Z,78.47
2022-11-16T03:53:24.104Z,78.43
2022-11-16T03:53:45.161Z,78.45
2022-11-16T03:54:06.221Z,78.45
2022-11-16T03:54:27.292Z,78.44
2022-11-16T03:54:48.328Z,78.40
2022-11-16T03:55:09.372Z,78.44
2022-11-16T03:55:30.435Z,78.43
2022-11-16T03:55:51.487Z,78.43
2022-11-16T03:56:12.535Z,78.41
2022-11-16T03:56:33.660Z,78.46
2022-11-16T03:56:54.737Z,78.39
2022-11-16T03:57:15.788Z,78.43
2022-11-16T03:57:36.849Z,78.45
2022-11-16T03:57:57.892Z,78.46
2022-11-16T03:58:18.943Z,78.39
2022-11-16T03:58:40.025Z,78.40
2022-11-16T03:59:01.132Z,78.38
2022-11-16T03:59:22.178Z,78.39
2022-11-16T03:59:43.209Z,78.40
2022-11-16T04:00:04.270Z,78.45
2022-11-16T04:00:25.318Z,78.45
2022-11-16T04:00:46.415Z,78.41
2022-11-16T04:01:07.474Z,78.43
2022-11-16T04:01:28.582Z,78.49
2022-11-16T04:01:49.631Z,78.53
2022-11-16T04:02:10.677Z,78.48
2022-11-16T04:02:31.801Z,78.55
2022-11-16T04:02:52.822Z,78.50
2022-11-16T04:03:13.886Z,78.49
2022-11-16T04:03:35.100Z,78.52
2022-11-16T04:03:56.271Z,78.47
2022-11-16T04:04:17.410Z,78.48
2022-11-16T04:04:38.498Z,78.45
2022-11-16T04:04:59.549Z,78.42
2022-11-16T04:05:20.618Z,78.37
2022-11-16T04:05:41.933Z,78.40
2022-11-16T04:06:02.974Z,78.42
2022-11-16T04:06:24.059Z,78.43
2022-11-16T04:06:45.098Z,78.41
2022-11-16T04:07:06.161Z,78.44
2022-11-16T04:07:27.261Z,78.44
2022-11-16T04:07:48.296Z,78.50
2022-11-16T04:08:09.346Z,78.46
2022-11-16T04:08:30.554Z,78.47
2022-11-16T04:08:51.628Z,78.45
2022-11-16T04:09:12.811Z,78.45
2022-11-16T04:09:33.868Z,78.45
2022-11-16T04:09:54.934Z,78.47
2022-11-16T04:10:15.979Z,78.47
2022-11-16T04:10:37.045Z,78.45
2022-11-16T04:10:58.121Z,78.48
2022-11-16T04:11:19.164Z,78.55
2022-11-16T04:11:40.205Z,78.57
2022-11-16T04:12:01.262Z,78.48
2022-11-16T04:12:22.311Z,78.50
2022-11-16T04:12:43.360Z,78.49
2022-11-16T04:13:04.411Z,78.47
2022-11-16T04:13:25.488Z,78.45
2022-11-16T04:13:46.529Z,78.47
2022-11-16T04:14:09.199Z,78.50
2022-11-16T04:14:30.562Z,78.56
2022-11-16T04:14:51.632Z,78.49
2022-11-16T04:15:12.690Z,78.56
2022-11-16T04:15:33.747Z,78.56
2022-11-16T04:15:54.792Z,78.54
2022-11-16T04:16:15.887Z,78.55
2022-11-16T04:16:36.934Z,78.52
2022-11-16T04:16:58.003Z,78.58
2022-11-16T04:17:19.089Z,78.55
2022-11-16T04:17:40.118Z,78.58
2022-11-16T04:18:01.178Z,78.60
2022-11-16T04:18:22.216Z,78.58
2022-11-16T04:18:43.271Z,78.60
2022-11-16T04:19:04.332Z,78.56
2022-11-16T04:19:25.374Z,78.62
2022-11-16T04:19:46.498Z,78.57
2022-11-16T04:20:07.549Z,78.59
2022-11-16T04:20:28.608Z,78.62
2022-11-16T04:20:49.675Z,78.62
2022-11-16T04:21:10.712Z,78.61
2022-11-16T04:21:31.792Z,78.63
2022-11-16T04:21:52.896Z,78.63
2022-11-16T04:22:13.912Z,78.62
2022-11-16T04:22:34.969Z,78.65
2022-11-16T04:22:56.019Z,78.63
2022-11-16T04:23:17.069Z,78.57
2022-11-16T04:23:38.122Z,78.62
2022-11-16T04:23:59.204Z,78.58
2022-11-16T04:24:20.219Z,78.55
2022-11-16T04:24:41.267Z,78.52
2022-11-16T04:25:02.431Z,78.54
2022-11-16T04:25:23.482Z,78.52
2022-11-16T04:25:44.547Z,78.51
2022-11-16T04:26:05.643Z,78.49
2022-11-16T04:26:26.676Z,78.48
2022-11-16T04:26:47.721Z,78.47
2022-11-16T04:27:08.775Z,78.48
2022-11-16T04:27:29.824Z,78.48
2022-11-16T04:27:50.884Z,78.50
2022-11-16T04:28:11.970Z,78.43
2022-11-16T04:28:33.485Z,78.47
2022-11-16T04:28:54.682Z,78.46
2022-11-16T04:29:15.734Z,78.46
2022-11-16T04:29:36.792Z,78.51
2022-11-16T04:29:57.844Z,78.45
2022-11-16T04:30:19.017Z,78.47
2022-11-16T04:30:40.100Z,78.46
2022-11-16T04:31:01.196Z,78.46
2022-11-16T04:31:22.214Z,78.48